Time;durP1;ratioP1;P1;durP2;ratioP2;P2;SDS_P1;SDS_P2;PMS_P1;PMS_P2;Temp;Humidity;BMP_temperature;BMP_pressure;BME280_temperature;BME280_humidity;BME280_pressure;Samples;Min_cycle;Max_cycle;Signal;HPM_P1;HPM_P2
2023/10/17 00:02:16;;;;;;;23.77;8.48;;;;;;;;;;5075128;28;20143;-70
2023/10/17 00:04:42;;;;;;;23.20;8.23;;;;;;;;;;5075072;28;20064;-70
2023/10/17 00:07:08;;;;;;;29.88;8.93;;;;;;;;;;5075351;28;20052;-70
2023/10/17 00:09:37;;;;;;;29.42;8.23;;;;;;;;;;5075151;28;20110;-70
2023/10/17 00:14:57;;;;;;;22.65;7.78;;;;;;;;;;5076639;28;20052;-71
2023/10/17 00:17:23;;;;;;;27.98;8.40;;;;;;;;;;5074798;28;20040;-73
2023/10/17 00:19:50;;;;;;;24.92;8.82;;;;;;;;;;5075911;28;20051;-73
2023/10/17 00:22:23;;;;;;;28.43;8.93;;;;;;;;;;5076048;28;20151;-73
2023/10/17 00:24:54;;;;;;;29.38;8.77;;;;;;;;;;5076369;28;20052;-73
2023/10/17 00:27:20;;;;;;;22.98;8.05;;;;;;;;;;5076047;28;20472;-73
2023/10/17 00:29:46;;;;;;;26.02;9.73;;;;;;;;;;5058332;28;20460;-72
2023/10/17 00:32:12;;;;;;;21.02;6.95;;;;;;;;;;5075794;28;20045;-72
2023/10/17 00:34:40;;;;;;;21.52;7.05;;;;;;;;;;5075848;28;20040;-73
2023/10/17 00:37:10;;;;;;;18.52;7.05;;;;;;;;;;5074646;28;20132;-73
2023/10/17 00:39:38;;;;;;;22.27;7.80;;;;;;;;;;5075919;28;20480;-73
2023/10/17 00:44:39;;;;;;;21.85;7.07;;;;;;;;;;5074522;28;20015;-73
2023/10/17 00:47:06;;;;;;;24.48;7.72;;;;;;;;;;5074683;28;20052;-73
2023/10/17 00:49:45;;;;;;;21.58;6.82;;;;;;;;;;5059249;28;20044;-73
2023/10/17 00:52:17;;;;;;;23.30;7.35;;;;;;;;;;5076693;28;20056;-72
2023/10/17 00:54:43;;;;;;;22.00;6.68;;;;;;;;;;5077106;28;20083;-73
2023/10/17 00:57:10;;;;;;;26.30;6.18;;;;;;;;;;5059349;28;20037;-72
2023/10/17 00:59:44;;;;;;;27.13;7.05;;;;;;;;;;5076384;28;20052;-73
2023/10/17 01:02:10;;;;;;;20.70;6.63;;;;;;;;;;5075520;28;20064;-73
2023/10/17 01:04:40;;;;;;;19.13;6.43;;;;;;;;;;5075718;28;20061;-73
2023/10/17 01:07:07;;;;;;;19.88;6.07;;;;;;;;;;5075111;28;20158;-73
2023/10/17 01:09:36;;;;;;;25.88;7.60;;;;;;;;;;5075522;28;20060;-73
2023/10/17 01:12:12;;;;;;;28.48;7.60;;;;;;;;;;5074421;28;20131;-73
2023/10/17 01:14:40;;;;;;;21.83;7.50;;;;;;;;;;5075055;28;20044;-73
2023/10/17 01:17:14;;;;;;;25.02;8.80;;;;;;;;;;5073759;28;20302;-73
2023/10/17 01:19:40;;;;;;;29.42;8.95;;;;;;;;;;5074538;28;20044;-73
2023/10/17 01:22:06;;;;;;;26.30;8.55;;;;;;;;;;5074743;28;20049;-73
2023/10/17 01:24:32;;;;;;;29.15;11.02;;;;;;;;;;5074827;28;20084;-73
2023/10/17 01:27:05;;;;;;;25.90;9.70;;;;;;;;;;5073540;28;20052;-72
2023/10/17 01:29:31;;;;;;;27.13;9.15;;;;;;;;;;5073790;28;20056;-72
2023/10/17 01:31:59;;;;;;;24.40;9.30;;;;;;;;;;5074823;28;20044;-72
2023/10/17 01:34:25;;;;;;;31.02;10.27;;;;;;;;;;5073342;28;20052;-72
2023/10/17 01:36:53;;;;;;;23.17;9.68;;;;;;;;;;5074590;28;20135;-72
2023/10/17 01:39:20;;;;;;;23.15;10.25;;;;;;;;;;5074004;28;20084;-72
2023/10/17 01:41:48;;;;;;;25.42;9.30;;;;;;;;;;5075971;28;20054;-72
2023/10/17 01:44:14;;;;;;;25.00;9.95;;;;;;;;;;5076338;28;20400;-72
2023/10/17 01:46:43;;;;;;;29.23;9.82;;;;;;;;;;5075312;28;20055;-73
2023/10/17 01:49:13;;;;;;;25.67;10.20;;;;;;;;;;5073862;28;20084;-72
2023/10/17 01:51:45;;;;;;;26.63;10.65;;;;;;;;;;5077786;28;20047;-74
2023/10/17 01:54:14;;;;;;;28.02;10.63;;;;;;;;;;5077169;28;20055;-72
2023/10/17 01:56:40;;;;;;;29.88;9.63;;;;;;;;;;5076531;28;20594;-71
2023/10/17 01:59:29;;;;;;;24.63;9.85;;;;;;;;;;5077026;28;20048;-74
2023/10/17 02:01:56;;;;;;;26.75;9.77;;;;;;;;;;5077256;28;20052;-73
2023/10/17 02:04:24;;;;;;;24.20;9.65;;;;;;;;;;5076765;28;20048;-72
2023/10/17 02:06:51;;;;;;;22.90;8.90;;;;;;;;;;5075944;28;20102;-73
2023/10/17 02:11:55;;;;;;;28.80;9.80;;;;;;;;;;5074628;28;20336;-73
2023/10/17 02:14:25;;;;;;;26.90;9.52;;;;;;;;;;5073107;28;20049;-73
2023/10/17 02:16:51;;;;;;;24.92;8.70;;;;;;;;;;5074385;28;20064;-73
2023/10/17 02:19:21;;;;;;;27.90;8.70;;;;;;;;;;5074336;28;20432;-73
2023/10/17 02:21:51;;;;;;;21.70;8.43;;;;;;;;;;5073539;28;20456;-74
2023/10/17 02:24:20;;;;;;;26.88;8.60;;;;;;;;;;5072489;28;20044;-73
2023/10/17 02:26:56;;;;;;;26.48;9.70;;;;;;;;;;5073999;28;20455;-73
2023/10/17 02:29:26;;;;;;;21.63;7.82;;;;;;;;;;5073334;28;20432;-74
2023/10/17 02:31:52;;;;;;;28.63;8.98;;;;;;;;;;5072605;28;20045;-73
2023/10/17 02:34:22;;;;;;;25.48;8.48;;;;;;;;;;5073965;28;20056;-73
2023/10/17 02:36:52;;;;;;;26.38;8.63;;;;;;;;;;5073118;28;20476;-73
2023/10/17 02:39:20;;;;;;;26.25;8.65;;;;;;;;;;5073429;28;20052;-73
2023/10/17 02:41:46;;;;;;;23.08;8.57;;;;;;;;;;5073549;28;20150;-73
2023/10/17 02:44:19;;;;;;;27.30;7.88;;;;;;;;;;5073446;28;20059;-72
2023/10/17 02:46:45;;;;;;;22.35;8.43;;;;;;;;;;5074011;28;20051;-73
2023/10/17 02:49:13;;;;;;;19.60;7.57;;;;;;;;;;5073250;28;20152;-73
2023/10/17 02:51:43;;;;;;;20.83;6.60;;;;;;;;;;5073180;28;20286;-73
2023/10/17 02:54:14;;;;;;;21.48;7.03;;;;;;;;;;5072163;28;20052;-73
2023/10/17 02:56:46;;;;;;;22.40;7.28;;;;;;;;;;5072221;28;20477;-73
2023/10/17 02:59:13;;;;;;;20.33;7.55;;;;;;;;;;5072586;28;20056;-72
2023/10/17 03:01:42;;;;;;;24.10;7.18;;;;;;;;;;5073566;28;20079;-73
2023/10/17 03:04:11;;;;;;;25.88;7.35;;;;;;;;;;5073130;28;20071;-73
2023/10/17 03:06:38;;;;;;;15.13;6.25;;;;;;;;;;5072540;28;20048;-73
2023/10/17 03:09:15;;;;;;;19.70;7.03;;;;;;;;;;5073033;28;20079;-73
2023/10/17 03:12:19;;;;;;;19.83;6.30;;;;;;;;;;5072453;28;20052;-72
2023/10/17 03:14:49;;;;;;;17.35;6.68;;;;;;;;;;5072079;28;20055;-72
2023/10/17 03:17:16;;;;;;;18.80;6.72;;;;;;;;;;5072957;28;20049;-72
2023/10/17 03:19:42;;;;;;;21.42;6.85;;;;;;;;;;5073089;28;20498;-73
2023/10/17 03:22:27;;;;;;;21.63;6.93;;;;;;;;;;5071854;28;20484;-73
2023/10/17 03:25:01;;;;;;;16.63;6.97;;;;;;;;;;5072843;28;20556;-72
2023/10/17 03:27:36;;;;;;;19.55;7.05;;;;;;;;;;5071896;28;20076;-73
2023/10/17 03:30:08;;;;;;;20.77;7.28;;;;;;;;;;5073126;28;20049;-73
2023/10/17 03:32:34;;;;;;;21.73;7.00;;;;;;;;;;5072076;28;20084;-73
2023/10/17 03:35:02;;;;;;;21.08;7.00;;;;;;;;;;5072977;28;20056;-72
2023/10/17 03:37:29;;;;;;;22.15;7.30;;;;;;;;;;5055769;28;20067;-72
2023/10/17 03:40:14;;;;;;;24.17;7.40;;;;;;;;;;5072610;28;20449;-72
2023/10/17 03:45:13;;;;;;;22.95;6.15;;;;;;;;;;5072763;28;20392;-73
2023/10/17 03:47:49;;;;;;;20.48;6.28;;;;;;;;;;5073584;28;20040;-73
2023/10/17 03:53:06;;;;;;;17.60;7.03;;;;;;;;;;5073362;28;20079;-73
2023/10/17 03:55:35;;;;;;;17.10;6.55;;;;;;;;;;5072709;28;20084;-73
2023/10/17 03:58:08;;;;;;;21.67;6.97;;;;;;;;;;5072546;28;20071;-73
2023/10/17 04:00:41;;;;;;;27.95;6.60;;;;;;;;;;5072516;28;20099;-73
2023/10/17 04:03:18;;;;;;;26.23;6.93;;;;;;;;;;5072969;28;20048;-73
2023/10/17 04:05:45;;;;;;;37.90;8.57;;;;;;;;;;5072660;28;20056;-73
2023/10/17 04:08:11;;;;;;;23.00;6.22;;;;;;;;;;5072293;28;20041;-72
2023/10/17 04:10:49;;;;;;;16.95;5.82;;;;;;;;;;5072533;28;20110;-74
2023/10/17 04:13:23;;;;;;;18.90;5.70;;;;;;;;;;5073183;28;20132;-72
2023/10/17 04:15:49;;;;;;;15.57;5.35;;;;;;;;;;5072561;28;20084;-74
2023/10/17 04:18:15;;;;;;;61.75;9.57;;;;;;;;;;5072526;28;20074;-73
2023/10/17 04:20:46;;;;;;;26.65;7.30;;;;;;;;;;5074725;28;20056;-73
2023/10/17 04:23:21;;;;;;;24.10;8.25;;;;;;;;;;5075955;28;20054;-74
2023/10/17 04:25:54;;;;;;;23.10;7.70;;;;;;;;;;5076364;28;20048;-72
2023/10/17 04:28:26;;;;;;;25.75;9.18;;;;;;;;;;5076073;28;20143;-72
2023/10/17 04:30:56;;;;;;;44.90;11.13;;;;;;;;;;5075789;28;20539;-73
2023/10/17 04:33:22;;;;;;;38.03;10.65;;;;;;;;;;5075367;28;20055;-72
2023/10/17 04:35:55;;;;;;;31.48;10.23;;;;;;;;;;5075737;28;20055;-73
2023/10/17 04:39:10;;;;;;;31.58;10.35;;;;;;;;;;5076113;28;20048;-74
2023/10/17 04:43:55;;;;;;;48.78;13.60;;;;;;;;;;5075695;28;20434;-73
2023/10/17 04:46:29;;;;;;;38.67;12.05;;;;;;;;;;5075778;28;20091;-73
2023/10/17 04:49:06;;;;;;;38.70;11.88;;;;;;;;;;5074502;28;20123;-73
2023/10/17 04:51:38;;;;;;;34.33;10.77;;;;;;;;;;5074286;28;20044;-74
2023/10/17 04:54:09;;;;;;;43.33;12.60;;;;;;;;;;5076129;28;20079;-73
2023/10/17 04:56:53;;;;;;;37.97;11.55;;;;;;;;;;5074895;28;20051;-73
2023/10/17 04:59:27;;;;;;;31.55;10.82;;;;;;;;;;5074631;28;20044;-73
2023/10/17 05:02:13;;;;;;;29.45;10.23;;;;;;;;;;5108640;28;20049;-73
2023/10/17 05:07:28;;;;;;;40.53;11.98;;;;;;;;;;5075375;28;20053;-73
2023/10/17 06:18:57;;;;;;;37.92;12.10;;;;;;;;;;5074335;28;20099;-73
2023/10/17 06:21:36;;;;;;;42.00;11.68;;;;;;;;;;5074070;28;20046;-73
2023/10/17 06:24:06;;;;;;;39.92;12.25;;;;;;;;;;5075732;28;20110;-74
2023/10/17 06:26:57;;;;;;;40.70;12.20;;;;;;;;;;5075006;28;20389;-73
2023/10/17 06:34:20;;;;;;;39.28;11.73;;;;;;;;;;5073578;28;20055;-73
2023/10/17 06:36:49;;;;;;;37.60;13.30;;;;;;;;;;5073764;28;20338;-73
2023/10/17 06:39:19;;;;;;;40.80;13.13;;;;;;;;;;5073412;28;20052;-73
2023/10/17 06:41:46;;;;;;;41.63;13.50;;;;;;;;;;5072885;28;20048;-73
2023/10/17 06:44:21;;;;;;;38.80;13.80;;;;;;;;;;5073361;28;20445;-73
2023/10/17 06:46:55;;;;;;;43.75;14.38;;;;;;;;;;5057397;28;20057;-73
2023/10/17 06:54:40;;;;;;;43.50;15.18;;;;;;;;;;5073364;28;20049;-73
2023/10/17 06:57:18;;;;;;;45.72;15.98;;;;;;;;;;5073331;28;20059;-73
2023/10/17 06:59:45;;;;;;;45.72;17.30;;;;;;;;;;5073330;28;20447;-73
2023/10/17 07:02:18;;;;;;;95.68;26.92;;;;;;;;;;5071973;28;20060;-74
2023/10/17 07:04:45;;;;;;;102.82;28.95;;;;;;;;;;5072887;28;20531;-73
2023/10/17 07:07:11;;;;;;;84.35;26.25;;;;;;;;;;5072839;28;20362;-73
2023/10/17 07:09:38;;;;;;;75.15;23.10;;;;;;;;;;5071875;28;20045;-73
2023/10/17 07:12:05;;;;;;;78.35;22.77;;;;;;;;;;5072737;28;20087;-73
2023/10/17 07:14:31;;;;;;;94.25;25.85;;;;;;;;;;5073313;28;20056;-73
2023/10/17 07:17:00;;;;;;;105.00;28.95;;;;;;;;;;5072666;28;20382;-74
2023/10/17 07:24:26;;;;;;;91.03;26.17;;;;;;;;;;5073750;28;20075;-74
2023/10/17 07:26:52;;;;;;;70.20;22.95;;;;;;;;;;5071958;28;20491;-73
2023/10/17 07:29:22;;;;;;;74.97;23.33;;;;;;;;;;5072714;28;20053;-74
2023/10/17 07:32:00;;;;;;;63.22;21.58;;;;;;;;;;5072474;28;20497;-74
2023/10/17 07:34:33;;;;;;;59.20;20.83;;;;;;;;;;5073620;28;20402;-74
2023/10/17 07:39:38;;;;;;;64.05;20.65;;;;;;;;;;5072609;28;20132;-73
2023/10/17 07:42:14;;;;;;;63.55;20.83;;;;;;;;;;5073661;28;20051;-73
2023/10/17 07:44:43;;;;;;;69.30;20.50;;;;;;;;;;5072568;28;20051;-74
2023/10/17 07:47:19;;;;;;;60.30;20.92;;;;;;;;;;5073465;28;20051;-73
2023/10/17 07:49:48;;;;;;;64.57;21.25;;;;;;;;;;5077267;28;20048;-73
2023/10/17 07:52:22;;;;;;;67.90;21.20;;;;;;;;;;5077325;28;20045;-74
2023/10/17 07:54:58;;;;;;;64.00;22.75;;;;;;;;;;5079356;28;20056;-73
2023/10/17 07:57:36;;;;;;;61.47;21.00;;;;;;;;;;5078780;28;20044;-72
2023/10/17 08:00:24;;;;;;;45.28;18.10;;;;;;;;;;5077370;28;20052;-73
2023/10/17 08:02:51;;;;;;;48.30;17.70;;;;;;;;;;5077869;28;20060;-75
2023/10/17 08:05:23;;;;;;;38.30;14.13;;;;;;;;;;5079177;28;20380;-74
2023/10/17 08:07:49;;;;;;;34.38;13.60;;;;;;;;;;5059017;28;20127;-74
2023/10/17 08:10:35;;;;;;;43.00;14.50;;;;;;;;;;5076589;28;20048;-75
2023/10/17 08:13:02;;;;;;;42.38;14.77;;;;;;;;;;5076669;28;20127;-75
2023/10/17 08:15:36;;;;;;;45.25;14.85;;;;;;;;;;5075825;28;20052;-74
2023/10/17 08:18:03;;;;;;;39.72;13.60;;;;;;;;;;5075181;28;20083;-76
2023/10/17 08:23:17;;;;;;;37.17;13.80;;;;;;;;;;5077067;28;20051;-75
2023/10/17 08:25:52;;;;;;;41.50;13.63;;;;;;;;;;5075376;28;20435;-74
2023/10/17 08:33:52;;;;;;;51.05;14.00;;;;;;;;;;5076794;28;20049;-75
2023/10/17 08:36:23;;;;;;;39.00;12.63;;;;;;;;;;5076947;28;20067;-75
2023/10/17 08:38:49;;;;;;;39.33;12.75;;;;;;;;;;5076563;28;20041;-75
2023/10/17 08:41:15;;;;;;;32.80;11.77;;;;;;;;;;5041638;28;20059;-75
2023/10/17 08:43:42;;;;;;;40.27;12.13;;;;;;;;;;5075889;28;20055;-75
2023/10/17 08:46:10;;;;;;;31.70;11.83;;;;;;;;;;5074608;28;20291;-75
2023/10/17 08:48:37;;;;;;;32.72;11.57;;;;;;;;;;5058539;28;20049;-75
2023/10/17 08:51:06;;;;;;;29.87;11.87;;;;;;;;;;5075652;28;20049;-76
2023/10/17 08:53:33;;;;;;;27.48;9.65;;;;;;;;;;5075381;28;20826;-75
2023/10/17 08:56:02;;;;;;;24.77;9.30;;;;;;;;;;5057757;28;20052;-73
2023/10/17 08:58:36;;;;;;;22.10;8.77;;;;;;;;;;5076033;28;20056;-76
2023/10/17 09:01:13;;;;;;;31.90;9.90;;;;;;;;;;5075614;28;20060;-74
2023/10/17 09:03:46;;;;;;;23.35;6.80;;;;;;;;;;5075261;28;20053;-73
2023/10/17 09:08:51;;;;;;;20.02;6.80;;;;;;;;;;5075472;28;20052;-77
2023/10/17 09:14:27;;;;;;;26.00;6.93;;;;;;;;;;5051820;28;20048;-74
2023/10/17 09:17:16;;;;;;;17.90;5.32;;;;;;;;;;5074599;28;20052;-73
2023/10/17 09:19:46;;;;;;;22.02;4.93;;;;;;;;;;5074974;28;20048;-74
2023/10/17 09:22:15;;;;;;;19.30;5.00;;;;;;;;;;5075506;28;20385;-75
2023/10/17 09:24:45;;;;;;;12.70;3.50;;;;;;;;;;5074275;28;20374;-74
2023/10/17 09:27:15;;;;;;;20.98;4.05;;;;;;;;;;5073834;28;20062;-71
2023/10/17 09:29:44;;;;;;;17.92;4.22;;;;;;;;;;5075104;28;20107;-74
2023/10/17 09:32:10;;;;;;;14.30;3.30;;;;;;;;;;5074977;28;20091;-74
2023/10/17 09:34:38;;;;;;;16.95;4.00;;;;;;;;;;5075023;28;20400;-75
2023/10/17 09:37:05;;;;;;;16.50;3.45;;;;;;;;;;5074779;28;20084;-73
2023/10/17 09:39:33;;;;;;;12.23;2.53;;;;;;;;;;5074551;28;20048;-72
2023/10/17 09:42:00;;;;;;;11.32;2.10;;;;;;;;;;5073874;28;20048;-70
2023/10/17 09:44:26;;;;;;;13.00;1.92;;;;;;;;;;5075181;28;20044;-75
2023/10/17 09:46:56;;;;;;;13.10;1.50;;;;;;;;;;5074783;28;20045;-75
2023/10/17 09:49:25;;;;;;;11.50;1.75;;;;;;;;;;5075003;28;20047;-73
2023/10/17 09:51:55;;;;;;;8.48;1.77;;;;;;;;;;5073446;28;20044;-74
2023/10/17 09:54:22;;;;;;;12.90;2.10;;;;;;;;;;5074710;28;20048;-73
2023/10/17 09:56:48;;;;;;;;;;;;;;;;;;5074037;28;20117;-72
2023/10/17 09:59:17;;;;;;;9.27;1.63;;;;;;;;;;5075112;28;20019;-74
2023/10/17 10:01:45;;;;;;;9.27;1.50;;;;;;;;;;5056621;28;20056;-76
2023/10/17 10:04:12;;;;;;;6.47;1.20;;;;;;;;;;5074374;28;20052;-74
2023/10/17 10:06:39;;;;;;;8.25;1.75;;;;;;;;;;5074346;28;20045;-75
2023/10/17 10:09:14;;;;;;;9.05;1.45;;;;;;;;;;5074303;28;20048;-74
2023/10/17 10:11:49;;;;;;;10.57;1.27;;;;;;;;;;5074368;28;20048;-74
2023/10/17 10:14:16;;;;;;;12.85;1.85;;;;;;;;;;5074172;28;20048;-75
2023/10/17 10:16:49;;;;;;;9.95;1.55;;;;;;;;;;5074768;28;20078;-75
2023/10/17 10:19:16;;;;;;;15.10;1.70;;;;;;;;;;5074363;28;20469;-73
2023/10/17 10:21:42;;;;;;;;;;;;;;;;;;5073032;28;20141;-73
2023/10/17 10:24:17;;;;;;;11.53;2.10;;;;;;;;;;5074388;28;19920;-74
2023/10/17 10:26:44;;;;;;;13.32;1.60;;;;;;;;;;5074047;28;20109;-75
2023/10/17 10:29:22;;;;;;;11.07;2.22;;;;;;;;;;5056296;28;20064;-72
2023/10/17 10:31:48;;;;;;;17.10;2.78;;;;;;;;;;5073757;28;20080;-77
2023/10/17 10:34:14;;;;;;;8.60;1.90;;;;;;;;;;5074218;28;20388;-73
2023/10/17 10:36:40;;;;;;;13.80;1.73;;;;;;;;;;5072817;28;20052;-74
2023/10/17 10:39:13;;;;;;;9.55;1.65;;;;;;;;;;5073691;28;20442;-74
2023/10/17 10:41:39;;;;;;;14.85;2.80;;;;;;;;;;5056465;28;20056;-73
2023/10/17 10:44:06;;;;;;;7.03;1.10;;;;;;;;;;5072966;28;20052;-73
2023/10/17 10:46:33;;;;;;;8.98;2.00;;;;;;;;;;5072329;28;20377;-72
2023/10/17 10:48:59;;;;;;;10.77;1.08;;;;;;;;;;5073852;28;20044;-74
2023/10/17 10:51:25;;;;;;;8.40;1.90;;;;;;;;;;5072986;28;20552;-72
2023/10/17 10:53:55;;;;;;;11.77;1.05;;;;;;;;;;5073347;28;20048;-71
2023/10/17 10:56:22;;;;;;;13.00;2.78;;;;;;;;;;5073275;28;20181;-72
2023/10/17 10:58:56;;;;;;;4.45;1.23;;;;;;;;;;5073265;28;20041;-74
2023/10/17 11:01:27;;;;;;;13.25;1.60;;;;;;;;;;5073105;28;20052;-74
2023/10/17 11:03:53;;;;;;;4.72;0.80;;;;;;;;;;5072386;28;20392;-73
2023/10/17 11:06:23;;;;;;;9.00;0.90;;;;;;;;;;5072178;28;20040;-73
2023/10/17 11:08:49;;;;;;;8.45;1.15;;;;;;;;;;5073297;28;20162;-75
2023/10/17 11:11:22;;;;;;;14.38;1.23;;;;;;;;;;5071947;28;20055;-73
2023/10/17 11:13:51;;;;;;;8.18;1.20;;;;;;;;;;5073635;28;20041;-73
2023/10/17 11:16:21;;;;;;;4.38;1.10;;;;;;;;;;5073665;28;20103;-72
2023/10/17 11:18:47;;;;;;;6.63;1.13;;;;;;;;;;5071979;28;20110;-74
2023/10/17 11:21:14;;;;;;;7.65;1.10;;;;;;;;;;5073208;28;20434;-72
2023/10/17 11:23:46;;;;;;;9.50;1.23;;;;;;;;;;5072144;28;20049;-73
2023/10/17 11:26:13;;;;;;;10.80;1.70;;;;;;;;;;5055967;28;20051;-73
2023/10/17 11:28:42;;;;;;;5.28;0.90;;;;;;;;;;5075744;28;20045;-74
2023/10/17 11:31:13;;;;;;;7.75;1.13;;;;;;;;;;5077179;28;20080;-74
2023/10/17 11:33:47;;;;;;;5.15;1.42;;;;;;;;;;5075776;28;20097;-73
2023/10/17 11:36:16;;;;;;;6.32;1.10;;;;;;;;;;5076847;28;20059;-74
2023/10/17 11:38:43;;;;;;;8.38;1.20;;;;;;;;;;5075966;28;20056;-75
2023/10/17 11:41:09;;;;;;;10.02;1.20;;;;;;;;;;5077184;28;20048;-73
2023/10/17 11:43:36;;;;;;;4.82;1.08;;;;;;;;;;5076258;28;20049;-74
2023/10/17 11:46:12;;;;;;;9.02;1.40;;;;;;;;;;5078380;28;20052;-72
2023/10/17 11:48:45;;;;;;;4.18;1.10;;;;;;;;;;5078117;28;20037;-73
2023/10/17 11:51:17;;;;;;;6.72;0.80;;;;;;;;;;5077911;28;20055;-71
2023/10/17 11:54:05;;;;;;;7.85;1.15;;;;;;;;;;5077684;28;20048;-74
2023/10/17 11:56:41;;;;;;;6.22;0.80;;;;;;;;;;5076899;28;20048;-74
2023/10/17 11:59:08;;;;;;;4.28;0.73;;;;;;;;;;5077991;28;20044;-72
2023/10/17 12:01:34;;;;;;;5.28;1.00;;;;;;;;;;5077194;28;20057;-74
2023/10/17 12:04:05;;;;;;;3.55;0.90;;;;;;;;;;5076775;28;20396;-72
2023/10/17 12:06:31;;;;;;;8.30;1.00;;;;;;;;;;5077285;28;20123;-75
2023/10/17 12:08:57;;;;;;;9.38;1.38;;;;;;;;;;5076767;28;20044;-74
2023/10/17 12:11:26;;;;;;;6.65;0.85;;;;;;;;;;5058906;28;20044;-72
2023/10/17 12:13:53;;;;;;;8.25;1.00;;;;;;;;;;5075500;28;20471;-72
2023/10/17 12:16:26;;;;;;;3.78;0.80;;;;;;;;;;5058601;28;20070;-71
2023/10/17 12:18:52;;;;;;;8.02;0.82;;;;;;;;;;5075216;28;20044;-73
2023/10/17 12:21:19;;;;;;;9.85;0.95;;;;;;;;;;5076392;28;20136;-74
2023/10/17 12:23:45;;;;;;;5.43;0.85;;;;;;;;;;5076879;28;20117;-73
2023/10/17 12:26:14;;;;;;;5.63;0.90;;;;;;;;;;5075891;28;20500;-73
2023/10/17 12:28:43;;;;;;;12.23;1.25;;;;;;;;;;5075919;28;20047;-74
2023/10/17 12:31:10;;;;;;;5.90;1.35;;;;;;;;;;5075954;28;20041;-73
2023/10/17 12:33:36;;;;;;;3.47;1.00;;;;;;;;;;5075905;28;20365;-73
2023/10/17 12:36:04;;;;;;;6.35;1.70;;;;;;;;;;5075967;28;20122;-73
2023/10/17 12:38:34;;;;;;;4.32;1.02;;;;;;;;;;5075324;28;20049;-75
2023/10/17 12:41:03;;;;;;;8.10;1.10;;;;;;;;;;5075096;28;20064;-74
2023/10/17 12:43:29;;;;;;;4.90;0.82;;;;;;;;;;5076163;28;20109;-74
2023/10/17 12:45:55;;;;;;;7.53;1.70;;;;;;;;;;5108608;28;20047;-73
2023/10/17 12:48:22;;;;;;;5.85;1.40;;;;;;;;;;5076065;28;20045;-73
2023/10/17 12:50:48;;;;;;;5.43;1.25;;;;;;;;;;5074789;28;20054;-74
2023/10/17 12:53:14;;;;;;;6.63;1.67;;;;;;;;;;5074974;28;20041;-75
2023/10/17 12:55:41;;;;;;;8.57;1.40;;;;;;;;;;5074728;28;20053;-75
2023/10/17 12:58:18;;;;;;;9.73;1.50;;;;;;;;;;5075558;28;20044;-73
2023/10/17 13:00:49;;;;;;;15.18;2.20;;;;;;;;;;5075602;28;20135;-74
2023/10/17 13:03:15;;;;;;;7.25;1.15;;;;;;;;;;5074847;28;20389;-75
2023/10/17 13:05:41;;;;;;;7.03;1.10;;;;;;;;;;5057946;28;20052;-73
2023/10/17 13:08:07;;;;;;;4.70;0.90;;;;;;;;;;5075637;28;20314;-75
2023/10/17 13:10:33;;;;;;;9.05;1.73;;;;;;;;;;5075316;28;20465;-73
2023/10/17 13:13:00;;;;;;;5.85;1.20;;;;;;;;;;5074490;28;20520;-75
2023/10/17 13:15:26;;;;;;;7.65;1.13;;;;;;;;;;5074142;28;20396;-75
2023/10/17 13:17:55;;;;;;;8.47;1.80;;;;;;;;;;5074949;28;20465;-73
2023/10/17 13:20:32;;;;;;;6.40;1.40;;;;;;;;;;5057629;28;20063;-71
2023/10/17 13:23:04;;;;;;;5.38;1.50;;;;;;;;;;5075729;28;20048;-72
2023/10/17 13:25:34;;;;;;;5.65;1.40;;;;;;;;;;5074310;28;20109;-74
2023/10/17 13:28:01;;;;;;;5.55;1.00;;;;;;;;;;5073856;28;20079;-73
2023/10/17 13:30:27;;;;;;;4.40;0.82;;;;;;;;;;5075000;28;20056;-73
2023/10/17 13:32:53;;;;;;;5.18;1.50;;;;;;;;;;5057328;28;20056;-74
2023/10/17 13:35:23;;;;;;;5.70;1.30;;;;;;;;;;5073678;28;20052;-73
2023/10/17 13:37:53;;;;;;;8.82;1.20;;;;;;;;;;5074115;28;20041;-73
2023/10/17 13:40:23;;;;;;;8.32;1.30;;;;;;;;;;5075203;28;20045;-73
2023/10/17 13:42:50;;;;;;;4.75;1.00;;;;;;;;;;5074835;28;20052;-71
2023/10/17 13:45:16;;;;;;;;;;;;;;;;;;5075517;28;20055;-73
2023/10/17 13:47:42;;;;;;;5.30;0.97;;;;;;;;;;5057166;28;19921;-73
2023/10/17 13:50:13;;;;;;;4.13;0.70;;;;;;;;;;5057126;28;20056;-75
2023/10/17 13:52:41;;;;;;;5.38;1.00;;;;;;;;;;5075022;28;20049;-73
2023/10/17 13:55:09;;;;;;;6.80;1.00;;;;;;;;;;5082767;28;20032;-75
2023/10/17 13:57:36;;;;;;;7.25;0.98;;;;;;;;;;5064996;28;20048;-73
2023/10/17 14:00:05;;;;;;;8.13;1.10;;;;;;;;;;5062100;28;20048;-74
2023/10/17 14:02:32;;;;;;;5.68;0.82;;;;;;;;;;5076133;28;20132;-73
2023/10/17 14:04:58;;;;;;;7.97;1.00;;;;;;;;;;5076335;28;20408;-72
2023/10/17 14:07:24;;;;;;;10.10;1.07;;;;;;;;;;5076693;28;20086;-75
2023/10/17 14:09:55;;;;;;;7.90;1.20;;;;;;;;;;5075451;28;20044;-75
2023/10/17 14:12:21;;;;;;;5.90;0.80;;;;;;;;;;5074316;28;20056;-73
2023/10/17 14:14:48;;;;;;;5.68;0.80;;;;;;;;;;5074267;28;20067;-73
2023/10/17 14:17:15;;;;;;;7.85;1.00;;;;;;;;;;5072976;28;20102;-74
2023/10/17 14:19:44;;;;;;;9.98;3.20;;;;;;;;;;5072622;28;20385;-73
2023/10/17 14:27:23;;;;;;;8.25;1.20;;;;;;;;;;5073757;28;20056;-74
2023/10/17 14:29:49;;;;;;;;;;;;;;;;;;5074641;28;20127;-73
2023/10/17 14:32:15;;;;;;;8.30;1.17;;;;;;;;;;5072658;28;20340;-77
2023/10/17 14:34:41;;;;;;;6.65;0.80;;;;;;;;;;5072545;28;20052;-74
2023/10/17 14:37:08;;;;;;;7.35;1.20;;;;;;;;;;5073764;28;20083;-73
2023/10/17 14:39:34;;;;;;;6.63;1.05;;;;;;;;;;5074128;28;20385;-74
2023/10/17 14:42:00;;;;;;;8.38;1.40;;;;;;;;;;5055930;28;20048;-74
2023/10/17 14:44:29;;;;;;;5.95;1.20;;;;;;;;;;5055734;28;20472;-74
2023/10/17 14:46:57;;;;;;;9.80;1.40;;;;;;;;;;5073605;28;20365;-73
2023/10/17 14:49:24;;;;;;;7.63;1.30;;;;;;;;;;5074118;28;20044;-74
2023/10/17 14:51:50;;;;;;;7.88;1.15;;;;;;;;;;5072215;28;20139;-74
2023/10/17 14:54:16;;;;;;;8.90;1.30;;;;;;;;;;5073645;28;20045;-74
2023/10/17 14:56:42;;;;;;;4.78;1.13;;;;;;;;;;5073343;28;20044;-73
2023/10/17 14:59:09;;;;;;;6.15;1.15;;;;;;;;;;5073422;28;20052;-73
2023/10/17 15:01:36;;;;;;;9.52;1.70;;;;;;;;;;5071813;28;20147;-74
2023/10/17 15:04:02;;;;;;;5.95;1.30;;;;;;;;;;5072995;28;20372;-74
2023/10/17 15:06:31;;;;;;;8.98;1.70;;;;;;;;;;5073471;28;20166;-73
2023/10/17 15:08:57;;;;;;;9.18;1.50;;;;;;;;;;5072299;28;20044;-74
2023/10/17 15:11:24;;;;;;;6.40;1.90;;;;;;;;;;5073395;28;20044;-72
2023/10/17 15:13:50;;;;;;;8.47;2.03;;;;;;;;;;5072931;28;20477;-72
2023/10/17 15:16:20;;;;;;;8.23;1.98;;;;;;;;;;5071958;28;20301;-73
2023/10/17 15:18:47;;;;;;;7.32;1.55;;;;;;;;;;5072916;28;20091;-72
2023/10/17 15:21:15;;;;;;;7.00;1.30;;;;;;;;;;5073614;28;20421;-73
2023/10/17 15:23:44;;;;;;;6.20;1.55;;;;;;;;;;5073664;28;20063;-74
2023/10/17 15:26:10;;;;;;;7.07;1.60;;;;;;;;;;5072893;28;20132;-74
2023/10/17 15:28:37;;;;;;;7.90;1.85;;;;;;;;;;5071942;28;20040;-74
2023/10/17 15:31:07;;;;;;;4.03;1.27;;;;;;;;;;5073427;28;20131;-74
2023/10/17 15:33:33;;;;;;;5.97;1.60;;;;;;;;;;5073655;28;20304;-74
2023/10/17 15:36:03;;;;;;;5.38;1.30;;;;;;;;;;5072881;28;20095;-72
2023/10/17 15:38:33;;;;;;;6.28;1.67;;;;;;;;;;5071721;28;20040;-73
2023/10/17 15:40:59;;;;;;;11.23;1.85;;;;;;;;;;5071948;28;20040;-72
2023/10/17 15:43:25;;;;;;;6.57;1.60;;;;;;;;;;5071939;28;20048;-73
2023/10/17 15:45:54;;;;;;;5.55;1.40;;;;;;;;;;5072562;28;20052;-73
2023/10/17 15:48:24;;;;;;;6.78;1.95;;;;;;;;;;5071604;28;20519;-73
2023/10/17 15:51:00;;;;;;;8.30;2.00;;;;;;;;;;5054802;28;20089;-73
2023/10/17 15:53:28;;;;;;;7.88;2.38;;;;;;;;;;5073600;28;20057;-73
2023/10/17 15:55:54;;;;;;;9.65;1.92;;;;;;;;;;5073243;28;20056;-73
2023/10/17 15:58:22;;;;;;;14.32;1.85;;;;;;;;;;5073003;28;20366;-72
2023/10/17 16:00:48;;;;;;;;;;;;;;;;;;5071995;28;20060;-73
2023/10/17 16:03:15;;;;;;;10.23;2.15;;;;;;;;;;5072152;28;19927;-72
2023/10/17 16:05:41;;;;;;;;;;;;;;;;;;5073388;28;20461;-72
2023/10/17 16:08:10;;;;;;;11.67;3.60;;;;;;;;;;5072663;28;19927;-72
2023/10/17 16:10:36;;;;;;;10.75;3.92;;;;;;;;;;5073146;28;20048;-72
2023/10/17 16:13:02;;;;;;;10.43;3.72;;;;;;;;;;5072165;28;20143;-73
2023/10/17 16:15:28;;;;;;;11.93;2.90;;;;;;;;;;5059166;28;20400;-73
2023/10/17 16:17:54;;;;;;;10.15;3.53;;;;;;;;;;5076078;28;20045;-73
2023/10/17 16:20:20;;;;;;;8.97;2.70;;;;;;;;;;5075957;28;20090;-74
2023/10/17 16:22:47;;;;;;;6.63;2.08;;;;;;;;;;5076488;28;20286;-74
2023/10/17 16:25:14;;;;;;;8.82;2.90;;;;;;;;;;5075439;28;20067;-75
2023/10/17 16:27:40;;;;;;;9.82;3.10;;;;;;;;;;5076389;28;20044;-74
2023/10/17 16:30:10;;;;;;;9.43;2.42;;;;;;;;;;5076168;28;20048;-74
2023/10/17 16:32:40;;;;;;;6.10;2.15;;;;;;;;;;5074958;28;20040;-74
2023/10/17 16:35:07;;;;;;;6.53;2.10;;;;;;;;;;5076174;28;20123;-73
2023/10/17 16:37:34;;;;;;;7.60;2.55;;;;;;;;;;5074661;28;20067;-73
2023/10/17 16:40:10;;;;;;;10.35;3.38;;;;;;;;;;5075588;28;20053;-74
2023/10/17 16:42:38;;;;;;;10.55;3.00;;;;;;;;;;5074676;28;20049;-74
2023/10/17 16:45:05;;;;;;;6.18;1.88;;;;;;;;;;5074551;28;20048;-75
2023/10/17 16:47:31;;;;;;;6.03;2.30;;;;;;;;;;5075792;28;20443;-74
2023/10/17 16:49:57;;;;;;;8.27;2.10;;;;;;;;;;5074370;28;20045;-74
2023/10/17 16:52:23;;;;;;;9.95;2.65;;;;;;;;;;5074518;28;20131;-73